sensor_id;sensor_type;location;lat;lon;timestamp;pressure;altitude;pressure_sealevel;temperature;humidity
59289;BME280;45056;47.602;9.886;2023-02-28T00:06:19;92996.47;;;-3.15;66.55
59289;BME280;45056;47.602;9.886;2023-02-28T00:17:19;93004.09;;;-3.14;66.00
59289;BME280;45056;47.602;9.886;2023-02-28T00:20:38;93001.03;;;-3.16;66.28
59289;BME280;45056;47.602;9.886;2023-02-28T00:24:15;92993.19;;;-3.09;65.98
59289;BME280;45056;47.602;9.886;2023-02-28T00:27:47;92989.81;;;-3.06;65.60
59289;BME280;45056;47.602;9.886;2023-02-28T00:49:55;92995.56;;;-3.23;65.84
59289;BME280;45056;47.602;9.886;2023-02-28T00:52:23;92988.78;;;-3.21;65.73
59289;BME280;45056;47.602;9.886;2023-02-28T00:54:51;92987.66;;;-3.20;65.77
59289;BME280;45056;47.602;9.886;2023-02-28T00:57:20;92994.88;;;-3.20;65.29
59289;BME280;45056;47.602;9.886;2023-02-28T00:59:48;92988.72;;;-3.24;65.64
59289;BME280;45056;47.602;9.886;2023-02-28T01:02:16;92992.16;;;-3.24;65.56
59289;BME280;45056;47.602;9.886;2023-02-28T01:04:46;92989.41;;;-3.27;65.61
59289;BME280;45056;47.602;9.886;2023-02-28T01:07:14;92993.19;;;-3.28;65.80
59289;BME280;45056;47.602;9.886;2023-02-28T01:09:42;92984.81;;;-3.30;65.44
59289;BME280;45056;47.602;9.886;2023-02-28T01:12:10;92976.81;;;-3.30;65.78
59289;BME280;45056;47.602;9.886;2023-02-28T01:14:40;92977.53;;;-3.34;65.68
59289;BME280;45056;47.602;9.886;2023-02-28T01:17:08;92983.25;;;-3.31;65.58
59289;BME280;45056;47.602;9.886;2023-02-28T01:19:36;92974.88;;;-3.34;65.70
59289;BME280;45056;47.602;9.886;2023-02-28T01:22:06;92977.09;;;-3.36;65.77
59289;BME280;45056;47.602;9.886;2023-02-28T01:24:34;92971.00;;;-3.36;65.72
59289;BME280;45056;47.602;9.886;2023-02-28T01:27:02;92976.00;;;-3.35;65.72
59289;BME280;45056;47.602;9.886;2023-02-28T01:29:30;92982.06;;;-3.34;65.54
59289;BME280;45056;47.602;9.886;2023-02-28T01:32:00;92979.78;;;-3.36;65.38
59289;BME280;45056;47.602;9.886;2023-02-28T01:34:28;92983.97;;;-3.35;65.67
59289;BME280;45056;47.602;9.886;2023-02-28T01:36:56;92983.59;;;-3.33;65.67
59289;BME280;45056;47.602;9.886;2023-02-28T01:39:25;92976.31;;;-3.36;65.67
59289;BME280;45056;47.602;9.886;2023-02-28T01:41:53;92983.13;;;-3.39;65.48
59289;BME280;45056;47.602;9.886;2023-02-28T01:44:57;92982.44;;;-3.36;65.58
59289;BME280;45056;47.602;9.886;2023-02-28T01:47:35;92979.41;;;-3.34;65.63
59289;BME280;45056;47.602;9.886;2023-02-28T01:50:11;92976.03;;;-3.31;65.86
59289;BME280;45056;47.602;9.886;2023-02-28T01:52:45;92976.44;;;-3.29;65.11
59289;BME280;45056;47.602;9.886;2023-02-28T01:55:19;92971.56;;;-3.27;65.18
59289;BME280;45056;47.602;9.886;2023-02-28T01:57:52;92973.88;;;-3.25;65.14
59289;BME280;45056;47.602;9.886;2023-02-28T02:00:30;92958.69;;;-3.25;65.24
59289;BME280;45056;47.602;9.886;2023-02-28T02:03:06;92970.09;;;-3.24;65.35
59289;BME280;45056;47.602;9.886;2023-02-28T02:05:39;92965.19;;;-3.22;64.95
59289;BME280;45056;47.602;9.886;2023-02-28T02:08:11;92970.91;;;-3.20;65.41
59289;BME280;45056;47.602;9.886;2023-02-28T02:10:44;92966.00;;;-3.18;64.87
59289;BME280;45056;47.602;9.886;2023-02-28T02:13:30;92969.09;;;-3.16;64.90
59289;BME280;45056;47.602;9.886;2023-02-28T02:16:27;92962.59;;;-3.19;64.93
59289;BME280;45056;47.602;9.886;2023-02-28T02:19:24;92970.09;;;-3.24;64.59
59289;BME280;45056;47.602;9.886;2023-02-28T02:22:56;92974.22;;;-3.27;64.89
59289;BME280;45056;47.602;9.886;2023-02-28T02:25:57;92962.81;;;-3.27;64.73
59289;BME280;45056;47.602;9.886;2023-02-28T02:29:08;92960.06;;;-3.31;65.08
59289;BME280;45056;47.602;9.886;2023-02-28T02:35:37;92960.47;;;-3.29;65.15
59289;BME280;45056;47.602;9.886;2023-02-28T02:38:20;92973.44;;;-3.27;65.08
59289;BME280;45056;47.602;9.886;2023-02-28T02:41:08;92967.00;;;-3.26;65.06
59289;BME280;45056;47.602;9.886;2023-02-28T02:43:48;92966.59;;;-3.28;64.57
59289;BME280;45056;47.602;9.886;2023-02-28T02:46:33;92969.13;;;-3.36;64.91
59289;BME280;45056;47.602;9.886;2023-02-28T02:49:09;92967.09;;;-3.42;64.93
59289;BME280;45056;47.602;9.886;2023-02-28T02:51:46;92967.81;;;-3.45;65.02
59289;BME280;45056;47.602;9.886;2023-02-28T02:54:20;92968.94;;;-3.46;65.17
59289;BME280;45056;47.602;9.886;2023-02-28T02:56:59;92972.34;;;-3.46;65.16
59289;BME280;45056;47.602;9.886;2023-02-28T02:59:34;92968.13;;;-3.47;65.08
59289;BME280;45056;47.602;9.886;2023-02-28T03:02:07;92964.31;;;-3.50;64.80
59289;BME280;45056;47.602;9.886;2023-02-28T03:04:43;92966.59;;;-3.48;65.27
59289;BME280;45056;47.602;9.886;2023-02-28T03:07:17;92972.34;;;-3.46;65.00
59289;BME280;45056;47.602;9.886;2023-02-28T03:09:51;92973.81;;;-3.49;65.13
59289;BME280;45056;47.602;9.886;2023-02-28T03:12:20;92970.34;;;-3.53;65.22
59289;BME280;45056;47.602;9.886;2023-02-28T03:15:08;92977.41;;;-3.60;65.05
59289;BME280;45056;47.602;9.886;2023-02-28T03:18:01;92974.66;;;-3.64;65.40
59289;BME280;45056;47.602;9.886;2023-02-28T03:20:46;92972.28;;;-3.69;65.39
59289;BME280;45056;47.602;9.886;2023-02-28T03:23:36;92971.16;;;-3.68;65.77
59289;BME280;45056;47.602;9.886;2023-02-28T03:26:17;92983.69;;;-3.69;65.71
59289;BME280;45056;47.602;9.886;2023-02-28T03:28:55;92977.97;;;-3.71;65.55
59289;BME280;45056;47.602;9.886;2023-02-28T03:31:35;92979.75;;;-3.75;66.05
59289;BME280;45056;47.602;9.886;2023-02-28T03:34:10;92978.91;;;-3.79;66.15
59289;BME280;45056;47.602;9.886;2023-02-28T03:36:46;92983.06;;;-3.82;66.19
59289;BME280;45056;47.602;9.886;2023-02-28T03:39:27;92981.94;;;-3.81;65.97
59289;BME280;45056;47.602;9.886;2023-02-28T03:42:06;92984.66;;;-3.77;66.08
59289;BME280;45056;47.602;9.886;2023-02-28T03:44:42;92980.13;;;-3.77;65.86
59289;BME280;45056;47.602;9.886;2023-02-28T03:47:17;92976.69;;;-3.77;65.87
59289;BME280;45056;47.602;9.886;2023-02-28T03:49:57;92975.50;;;-3.80;65.75
59289;BME280;45056;47.602;9.886;2023-02-28T03:52:35;92987.31;;;-3.77;65.93
59289;BME280;45056;47.602;9.886;2023-02-28T03:55:11;92991.88;;;-3.78;65.91
59289;BME280;45056;47.602;9.886;2023-02-28T03:57:52;92992.63;;;-3.77;66.26
59289;BME280;45056;47.602;9.886;2023-02-28T04:00:30;92985.06;;;-3.75;66.19
59289;BME280;45056;47.602;9.886;2023-02-28T04:03:03;92992.38;;;-3.72;65.77
59289;BME280;45056;47.602;9.886;2023-02-28T04:05:45;92982.06;;;-3.73;65.93
59289;BME280;45056;47.602;9.886;2023-02-28T04:08:19;92987.75;;;-3.75;65.77
59289;BME280;45056;47.602;9.886;2023-02-28T04:10:58;92986.19;;;-3.76;65.93
59289;BME280;45056;47.602;9.886;2023-02-28T04:13:32;92990.75;;;-3.77;66.23
59289;BME280;45056;47.602;9.886;2023-02-28T04:16:00;92989.63;;;-3.75;66.22
59289;BME280;45056;47.602;9.886;2023-02-28T04:18:28;92988.19;;;-3.73;65.93
59289;BME280;45056;47.602;9.886;2023-02-28T04:20:59;92990.41;;;-3.75;65.95
59289;BME280;45056;47.602;9.886;2023-02-28T04:23:27;92998.38;;;-3.75;65.97
59289;BME280;45056;47.602;9.886;2023-02-28T04:25:57;92998.38;;;-3.75;65.93
59289;BME280;45056;47.602;9.886;2023-02-28T04:28:25;92998.38;;;-3.75;66.05
59289;BME280;45056;47.602;9.886;2023-02-28T04:30:56;92996.06;;;-3.77;65.91
59289;BME280;45056;47.602;9.886;2023-02-28T04:33:25;92996.06;;;-3.77;65.99
59289;BME280;45056;47.602;9.886;2023-02-28T04:35:59;92997.53;;;-3.79;66.16
59289;BME280;45056;47.602;9.886;2023-02-28T04:38:29;93006.72;;;-3.77;66.11
59289;BME280;45056;47.602;9.886;2023-02-28T04:40:59;92995.72;;;-3.75;65.89
59289;BME280;45056;47.602;9.886;2023-02-28T04:43:28;93006.00;;;-3.73;66.15
59289;BME280;45056;47.602;9.886;2023-02-28T04:46:02;93004.13;;;-3.73;66.09
59289;BME280;45056;47.602;9.886;2023-02-28T04:48:34;93010.56;;;-3.74;66.02
59289;BME280;45056;47.602;9.886;2023-02-28T04:51:06;93012.78;;;-3.76;65.87
59289;BME280;45056;47.602;9.886;2023-02-28T04:53:37;93015.44;;;-3.76;66.06
59289;BME280;45056;47.602;9.886;2023-02-28T04:56:11;93015.81;;;-3.78;66.14
59289;BME280;45056;47.602;9.886;2023-02-28T04:58:41;93023.69;;;-3.81;66.14
59289;BME280;45056;47.602;9.886;2023-02-28T05:01:21;93021.75;;;-3.84;66.19
59289;BME280;45056;47.602;9.886;2023-02-28T05:03:52;93012.66;;;-3.83;66.05
59289;BME280;45056;47.602;9.886;2023-02-28T05:06:24;93015.72;;;-3.81;66.33
59289;BME280;45056;47.602;9.886;2023-02-28T05:08:54;93010.41;;;-3.81;66.31
59289;BME280;45056;47.602;9.886;2023-02-28T05:11:27;93010.41;;;-3.81;66.20
59289;BME280;45056;47.602;9.886;2023-02-28T05:14:01;93015.31;;;-3.83;65.91
59289;BME280;45056;47.602;9.886;2023-02-28T05:16:30;93014.19;;;-3.82;66.18
59289;BME280;45056;47.602;9.886;2023-02-28T05:18:59;93012.66;;;-3.83;66.26
59289;BME280;45056;47.602;9.886;2023-02-28T05:21:29;93019.50;;;-3.82;65.93
59289;BME280;45056;47.602;9.886;2023-02-28T05:24:01;93012.66;;;-3.83;66.23
59289;BME280;45056;47.602;9.886;2023-02-28T05:26:34;93019.44;;;-3.86;65.78
59289;BME280;45056;47.602;9.886;2023-02-28T05:29:04;93006.91;;;-3.85;66.29
59289;BME280;45056;47.602;9.886;2023-02-28T05:31:33;93008.03;;;-3.86;66.11
59289;BME280;45056;47.602;9.886;2023-02-28T05:34:01;93009.56;;;-3.85;66.29
59289;BME280;45056;47.602;9.886;2023-02-28T05:36:30;93013.75;;;-3.84;66.17
59289;BME280;45056;47.602;9.886;2023-02-28T05:38:59;93023.66;;;-3.85;66.04
59289;BME280;45056;47.602;9.886;2023-02-28T05:41:27;93026.63;;;-3.86;66.37
59289;BME280;45056;47.602;9.886;2023-02-28T05:43:57;93028.44;;;-3.91;66.11
59289;BME280;45056;47.602;9.886;2023-02-28T05:46:26;93031.81;;;-3.94;66.02
59289;BME280;45056;47.602;9.886;2023-02-28T05:48:54;93031.81;;;-3.94;66.34
59289;BME280;45056;47.602;9.886;2023-02-28T05:51:24;93030.31;;;-3.91;65.91
59289;BME280;45056;47.602;9.886;2023-02-28T05:53:52;93032.22;;;-3.92;66.13
59289;BME280;45056;47.602;9.886;2023-02-28T05:56:20;93032.56;;;-3.93;66.12
59289;BME280;45056;47.602;9.886;2023-02-28T05:58:48;93043.56;;;-3.95;66.06
59289;BME280;45056;47.602;9.886;2023-02-28T06:01:22;93042.03;;;-3.96;66.17
59289;BME280;45056;47.602;9.886;2023-02-28T06:03:58;93042.03;;;-3.96;65.88
59289;BME280;45056;47.602;9.886;2023-02-28T06:06:27;93042.03;;;-3.96;65.67
59289;BME280;45056;47.602;9.886;2023-02-28T06:08:56;93041.22;;;-3.96;66.05
59289;BME280;45056;47.602;9.886;2023-02-28T06:11:24;93041.59;;;-3.98;65.92
59289;BME280;45056;47.602;9.886;2023-02-28T06:13:54;93051.88;;;-3.96;66.28
59289;BME280;45056;47.602;9.886;2023-02-28T06:16:24;93043.56;;;-3.95;66.16
59289;BME280;45056;47.602;9.886;2023-02-28T06:18:54;93045.78;;;-3.97;66.07
59289;BME280;45056;47.602;9.886;2023-02-28T06:21:23;93055.59;;;-4.01;66.18
59289;BME280;45056;47.602;9.886;2023-02-28T06:23:51;93048.72;;;-4.02;66.06
59289;BME280;45056;47.602;9.886;2023-02-28T06:26:19;93057.81;;;-4.03;65.83
59289;BME280;45056;47.602;9.886;2023-02-28T06:28:48;93065.44;;;-4.01;65.79
59289;BME280;45056;47.602;9.886;2023-02-28T06:31:20;93063.13;;;-4.03;66.11
59289;BME280;45056;47.602;9.886;2023-02-28T06:33:55;93069.91;;;-4.06;65.91
59289;BME280;45056;47.602;9.886;2023-02-28T06:36:23;93067.94;;;-4.09;66.27
59289;BME280;45056;47.602;9.886;2023-02-28T06:38:51;93066.38;;;-4.10;66.37
59289;BME280;45056;47.602;9.886;2023-02-28T06:41:23;93064.50;;;-4.09;66.11
59289;BME280;45056;47.602;9.886;2023-02-28T06:43:53;93076.34;;;-4.07;66.38
59289;BME280;45056;47.602;9.886;2023-02-28T06:46:21;93081.75;;;-4.03;65.82
59289;BME280;45056;47.602;9.886;2023-02-28T06:48:49;93076.84;;;-4.01;66.17
59289;BME280;45056;47.602;9.886;2023-02-28T06:51:20;93079.56;;;-3.97;66.09
59289;BME280;45056;47.602;9.886;2023-02-28T06:53:48;93085.72;;;-3.93;65.77
59289;BME280;45056;47.602;9.886;2023-02-28T06:56:17;93086.25;;;-3.87;65.82
59289;BME280;45056;47.602;9.886;2023-02-28T06:58:47;93096.28;;;-3.81;65.83
59289;BME280;45056;47.602;9.886;2023-02-28T07:01:17;93092.56;;;-3.76;65.71
59289;BME280;45056;47.602;9.886;2023-02-28T07:03:46;93090.00;;;-3.72;65.35
59289;BME280;45056;47.602;9.886;2023-02-28T07:06:20;93095.81;;;-3.67;65.22
59289;BME280;45056;47.602;9.886;2023-02-28T07:08:50;93105.91;;;-3.56;64.82
59289;BME280;45056;47.602;9.886;2023-02-28T07:11:20;93098.28;;;-3.58;64.93
59289;BME280;45056;47.602;9.886;2023-02-28T07:13:49;93099.13;;;-3.54;64.97
59289;BME280;45056;47.602;9.886;2023-02-28T07:16:18;93107.97;;;-3.50;64.61
59289;BME280;45056;47.602;9.886;2023-02-28T07:18:46;93109.84;;;-3.50;64.97
59289;BME280;45056;47.602;9.886;2023-02-28T07:21:15;93111.03;;;-3.48;64.93
59289;BME280;45056;47.602;9.886;2023-02-28T07:23:44;93113.09;;;-3.41;64.56
59289;BME280;45056;47.602;9.886;2023-02-28T07:26:15;93113.94;;;-3.37;64.63
59289;BME280;45056;47.602;9.886;2023-02-28T07:28:46;93115.13;;;-3.34;64.20
59289;BME280;45056;47.602;9.886;2023-02-28T07:31:16;93114.00;;;-3.33;64.43
59289;BME280;45056;47.602;9.886;2023-02-28T07:33:45;93115.63;;;-3.28;64.09
59289;BME280;45056;47.602;9.886;2023-02-28T07:36:15;93116.81;;;-3.26;64.53
59289;BME280;45056;47.602;9.886;2023-02-28T07:38:48;93107.50;;;-3.16;64.22
59289;BME280;45056;47.602;9.886;2023-02-28T07:41:18;93106.44;;;-3.11;63.74
59289;BME280;45056;47.602;9.886;2023-02-28T07:43:48;93114.94;;;-3.06;63.37
59289;BME280;45056;47.602;9.886;2023-02-28T07:46:17;93110.88;;;-2.99;63.32
59289;BME280;45056;47.602;9.886;2023-02-28T07:48:47;93117.88;;;-2.91;63.33
59289;BME280;45056;47.602;9.886;2023-02-28T07:51:15;93115.69;;;-2.85;63.02
59289;BME280;45056;47.602;9.886;2023-02-28T07:53:44;93120.81;;;-2.77;62.91
59289;BME280;45056;47.602;9.886;2023-02-28T07:56:13;93119.41;;;-2.70;62.72
59289;BME280;45056;47.602;9.886;2023-02-28T07:58:41;93119.81;;;-2.68;62.49
59289;BME280;45056;47.602;9.886;2023-02-28T08:01:10;93120.56;;;-2.68;62.11
59289;BME280;45056;47.602;9.886;2023-02-28T08:03:39;93121.22;;;-2.74;61.71
59289;BME280;45056;47.602;9.886;2023-02-28T08:06:15;93124.66;;;-2.74;62.25
59289;BME280;45056;47.602;9.886;2023-02-28T08:08:45;93134.25;;;-2.69;62.01
59289;BME280;45056;47.602;9.886;2023-02-28T08:11:16;93129.06;;;-2.62;62.16
59289;BME280;45056;47.602;9.886;2023-02-28T08:13:45;93138.72;;;-2.54;61.76
59289;BME280;45056;47.602;9.886;2023-02-28T08:16:14;93144.19;;;-2.47;61.66
59289;BME280;45056;47.602;9.886;2023-02-28T08:18:48;93138.41;;;-2.29;61.26
59289;BME280;45056;47.602;9.886;2023-02-28T08:21:17;93140.72;;;-2.04;60.96
59289;BME280;45056;47.602;9.886;2023-02-28T08:23:47;93145.38;;;-1.74;60.47
59289;BME280;45056;47.602;9.886;2023-02-28T08:26:17;93150.53;;;-1.35;59.27
59289;BME280;45056;47.602;9.886;2023-02-28T08:28:46;93144.22;;;-0.92;58.40
59289;BME280;45056;47.602;9.886;2023-02-28T08:31:15;93145.59;;;-0.71;56.51
59289;BME280;45056;47.602;9.886;2023-02-28T08:33:44;93154.59;;;-0.53;56.05
59289;BME280;45056;47.602;9.886;2023-02-28T08:36:15;93154.09;;;-0.28;55.69
59289;BME280;45056;47.602;9.886;2023-02-28T08:38:43;93156.56;;;-0.08;54.86
59289;BME280;45056;47.602;9.886;2023-02-28T08:41:12;93155.91;;;0.02;54.03
59289;BME280;45056;47.602;9.886;2023-02-28T08:43:42;93162.84;;;0.10;54.43
59289;BME280;45056;47.602;9.886;2023-02-28T08:46:12;93155.72;;;0.29;53.54
59289;BME280;45056;47.602;9.886;2023-02-28T08:48:40;93162.03;;;0.51;53.66
59289;BME280;45056;47.602;9.886;2023-02-28T08:51:11;93162.88;;;0.63;53.53
59289;BME280;45056;47.602;9.886;2023-02-28T08:53:40;93160.34;;;0.88;52.25
59289;BME280;45056;47.602;9.886;2023-02-28T08:56:10;93165.09;;;1.09;51.60
59289;BME280;45056;47.602;9.886;2023-02-28T08:58:39;93163.25;;;1.28;50.57
59289;BME280;45056;47.602;9.886;2023-02-28T09:01:11;93163.28;;;1.32;50.86
59289;BME280;45056;47.602;9.886;2023-02-28T09:03:41;93157.16;;;1.35;50.19
59289;BME280;45056;47.602;9.886;2023-02-28T09:06:10;93158.28;;;1.34;50.21
59289;BME280;45056;47.602;9.886;2023-02-28T09:08:40;93167.84;;;1.27;50.38
59289;BME280;45056;47.602;9.886;2023-02-28T09:11:08;93162.81;;;1.19;50.75
59289;BME280;45056;47.602;9.886;2023-02-28T09:13:38;93173.16;;;1.20;50.82
59289;BME280;45056;47.602;9.886;2023-02-28T09:16:10;93169.72;;;1.23;50.83
59289;BME280;45056;47.602;9.886;2023-02-28T09:18:42;93170.53;;;1.27;50.67
59289;BME280;45056;47.602;9.886;2023-02-28T09:21:12;93169.38;;;1.28;51.51
59289;BME280;45056;47.602;9.886;2023-02-28T09:23:43;93171.34;;;1.42;51.70
59289;BME280;45056;47.602;9.886;2023-02-28T09:26:14;93167.59;;;1.62;50.81
59289;BME280;45056;47.602;9.886;2023-02-28T09:28:43;93164.94;;;1.83;50.80
59289;BME280;45056;47.602;9.886;2023-02-28T09:31:15;93166.53;;;1.99;49.66
59289;BME280;45056;47.602;9.886;2023-02-28T09:33:48;93173.81;;;2.09;49.65
59289;BME280;45056;47.602;9.886;2023-02-28T09:36:17;93166.56;;;2.17;49.87
59289;BME280;45056;47.602;9.886;2023-02-28T09:38:46;93178.84;;;2.33;49.92
59289;BME280;45056;47.602;9.886;2023-02-28T09:41:16;93171.94;;;2.31;48.48
59289;BME280;45056;47.602;9.886;2023-02-28T09:43:50;93168.09;;;2.22;48.83
59289;BME280;45056;47.602;9.886;2023-02-28T09:46:31;93174.22;;;2.15;49.25
59289;BME280;45056;47.602;9.886;2023-02-28T09:49:06;93167.28;;;1.99;49.03
59289;BME280;45056;47.602;9.886;2023-02-28T09:51:49;93179.88;;;1.70;49.66
59289;BME280;45056;47.602;9.886;2023-02-28T09:54:26;93179.38;;;1.39;49.62
59289;BME280;45056;47.602;9.886;2023-02-28T09:57:00;93185.50;;;1.36;50.55
59289;BME280;45056;47.602;9.886;2023-02-28T09:59:42;93186.25;;;1.33;50.52
59289;BME280;45056;47.602;9.886;2023-02-28T10:02:46;93182.44;;;1.41;51.11
59289;BME280;45056;47.602;9.886;2023-02-28T10:05:27;93179.84;;;1.63;51.04
59289;BME280;45056;47.602;9.886;2023-02-28T10:08:08;93181.06;;;1.83;50.62
59289;BME280;45056;47.602;9.886;2023-02-28T10:10:44;93180.31;;;1.97;49.99
59289;BME280;45056;47.602;9.886;2023-02-28T10:13:24;93180.38;;;2.12;50.00
59289;BME280;45056;47.602;9.886;2023-02-28T10:16:01;93184.19;;;2.25;49.77
59289;BME280;45056;47.602;9.886;2023-02-28T10:18:42;93182.69;;;2.39;49.25
59289;BME280;45056;47.602;9.886;2023-02-28T10:21:20;93182.72;;;2.50;49.57
59289;BME280;45056;47.602;9.886;2023-02-28T10:24:02;93185.38;;;2.64;48.87
59289;BME280;45056;47.602;9.886;2023-02-28T10:26:39;93190.34;;;2.77;48.47
59289;BME280;45056;47.602;9.886;2023-02-28T10:29:12;93189.59;;;2.87;48.48
59289;BME280;45056;47.602;9.886;2023-02-28T10:31:40;93184.97;;;2.91;47.91
59289;BME280;45056;47.602;9.886;2023-02-28T10:34:12;93198.03;;;2.78;47.73
59289;BME280;45056;47.602;9.886;2023-02-28T10:36:41;93189.59;;;2.76;47.80
59289;BME280;45056;47.602;9.886;2023-02-28T10:39:36;93195.75;;;2.80;47.85
59289;BME280;45056;47.602;9.886;2023-02-28T10:42:21;93201.88;;;2.59;47.73
59289;BME280;45056;47.602;9.886;2023-02-28T10:45:06;93190.34;;;2.48;48.43
59289;BME280;45056;47.602;9.886;2023-02-28T10:47:49;93200.34;;;2.43;48.42
59289;BME280;45056;47.602;9.886;2023-02-28T10:50:39;93199.94;;;2.41;49.08
59289;BME280;45056;47.602;9.886;2023-02-28T10:53:27;93198.78;;;2.28;48.79
59289;BME280;45056;47.602;9.886;2023-02-28T10:56:01;93201.84;;;2.26;48.97
59289;BME280;45056;47.602;9.886;2023-02-28T10:58:46;93196.09;;;2.24;48.49
59289;BME280;45056;47.602;9.886;2023-02-28T11:01:19;93194.56;;;2.27;48.60
59289;BME280;45056;47.602;9.886;2023-02-28T11:03:49;93197.66;;;2.36;48.73
59289;BME280;45056;47.602;9.886;2023-02-28T11:06:25;93194.97;;;2.40;48.55
59289;BME280;45056;47.602;9.886;2023-02-28T11:08:58;93200.34;;;2.58;48.52
59289;BME280;45056;47.602;9.886;2023-02-28T11:11:30;93196.50;;;2.66;47.98
59289;BME280;45056;47.602;9.886;2023-02-28T11:14:19;93189.59;;;2.65;47.98
59289;BME280;45056;47.602;9.886;2023-02-28T11:16:51;93193.44;;;2.71;47.93
59289;BME280;45056;47.602;9.886;2023-02-28T11:19:25;93190.34;;;2.77;48.09
59289;BME280;45056;47.602;9.886;2023-02-28T11:22:00;93191.50;;;2.90;48.52
59289;BME280;45056;47.602;9.886;2023-02-28T11:24:35;93193.78;;;3.10;48.44
59289;BME280;45056;47.602;9.886;2023-02-28T11:27:25;93192.94;;;3.35;48.00
59289;BME280;45056;47.602;9.886;2023-02-28T11:30:33;93192.88;;;3.56;47.78
59289;BME280;45056;47.602;9.886;2023-02-28T11:33:21;93184.69;;;3.85;47.74
59289;BME280;45056;47.602;9.886;2023-02-28T11:35:52;93190.44;;;3.91;46.36
59289;BME280;45056;47.602;9.886;2023-02-28T11:38:27;93188.94;;;3.83;45.83
59289;BME280;45056;47.602;9.886;2023-02-28T11:41:08;93190.16;;;3.67;46.42
59289;BME280;45056;47.602;9.886;2023-02-28T11:44:14;93198.66;;;3.55;47.37
59289;BME280;45056;47.602;9.886;2023-02-28T11:46:54;93200.53;;;3.69;47.23
59289;BME280;45056;47.602;9.886;2023-02-28T11:49:35;93185.81;;;3.88;47.06
59289;BME280;45056;47.602;9.886;2023-02-28T11:52:20;93189.25;;;3.99;46.40
59289;BME280;45056;47.602;9.886;2023-02-28T11:55:11;93187.31;;;4.00;45.97
59289;BME280;45056;47.602;9.886;2023-02-28T11:58:01;93186.88;;;4.05;46.22
59289;BME280;45056;47.602;9.886;2023-02-28T12:00:54;93188.47;;;4.02;45.89
59289;BME280;45056;47.602;9.886;2023-02-28T12:03:43;93187.03;;;3.83;45.87
59289;BME280;45056;47.602;9.886;2023-02-28T12:06:24;93194.06;;;3.48;46.39
59289;BME280;45056;47.602;9.886;2023-02-28T12:09:16;93194.13;;;3.26;47.44
59289;BME280;45056;47.602;9.886;2023-02-28T12:12:04;93192.63;;;3.18;47.78
59289;BME280;45056;47.602;9.886;2023-02-28T12:15:13;93186.09;;;3.19;48.18
59289;BME280;45056;47.602;9.886;2023-02-28T12:18:11;93192.16;;;3.38;48.70
59289;BME280;45056;47.602;9.886;2023-02-28T12:21:01;93199.38;;;3.70;48.57
59289;BME280;45056;47.602;9.886;2023-02-28T12:23:51;93200.03;;;3.96;46.96
59289;BME280;45056;47.602;9.886;2023-02-28T12:26:36;93198.00;;;4.14;46.96
59289;BME280;45056;47.602;9.886;2023-02-28T12:29:17;93197.59;;;4.19;46.20
59289;BME280;45056;47.602;9.886;2023-02-28T12:31:55;93195.28;;;4.22;46.21
59289;BME280;45056;47.602;9.886;2023-02-28T12:34:32;93192.31;;;4.01;46.39
59289;BME280;45056;47.602;9.886;2023-02-28T12:37:10;93185.03;;;3.98;47.03
59289;BME280;45056;47.602;9.886;2023-02-28T12:39:50;93188.41;;;4.10;46.82
59289;BME280;45056;47.602;9.886;2023-02-28T12:42:27;93187.97;;;4.18;47.03
59289;BME280;45056;47.602;9.886;2023-02-28T12:45:02;93184.44;;;4.29;46.38
59289;BME280;45056;47.602;9.886;2023-02-28T12:47:38;93176.03;;;4.19;46.07
59289;BME280;45056;47.602;9.886;2023-02-28T12:50:11;93175.31;;;4.15;46.73
59289;BME280;45056;47.602;9.886;2023-02-28T12:52:48;93181.50;;;4.09;46.18
59289;BME280;45056;47.602;9.886;2023-02-28T12:55:33;93181.50;;;4.05;46.88
59289;BME280;45056;47.602;9.886;2023-02-28T12:58:14;93171.59;;;3.91;46.92
59289;BME280;45056;47.602;9.886;2023-02-28T13:01:13;93173.59;;;3.72;47.22
59289;BME280;45056;47.602;9.886;2023-02-28T13:04:25;93171.06;;;3.36;47.22
59289;BME280;45056;47.602;9.886;2023-02-28T13:07:33;93173.03;;;3.07;48.64
59289;BME280;45056;47.602;9.886;2023-02-28T13:10:19;93181.88;;;3.03;49.47
59289;BME280;45056;47.602;9.886;2023-02-28T13:12:49;93178.06;;;3.01;49.28
59289;BME280;45056;47.602;9.886;2023-02-28T13:15:21;93173.81;;;3.03;48.95
59289;BME280;45056;47.602;9.886;2023-02-28T13:17:56;93174.22;;;2.91;48.78
59289;BME280;45056;47.602;9.886;2023-02-28T13:20:34;93188.06;;;2.60;49.08
59289;BME280;45056;47.602;9.886;2023-02-28T13:23:03;93182.31;;;2.26;50.04
59289;BME280;45056;47.602;9.886;2023-02-28T13:26:07;93181.84;;;1.91;51.30
59289;BME280;45056;47.602;9.886;2023-02-28T13:29:20;93181.41;;;1.71;51.91
59289;BME280;45056;47.602;9.886;2023-02-28T13:32:34;93186.41;;;1.76;52.48
59289;BME280;45056;47.602;9.886;2023-02-28T13:35:43;93183.78;;;1.98;52.45
59289;BME280;45056;47.602;9.886;2023-02-28T13:44:19;93181.91;;;2.27;51.33
59289;BME280;45056;47.602;9.886;2023-02-28T13:47:19;93182.69;;;2.39;51.02
59289;BME280;45056;47.602;9.886;2023-02-28T13:49:52;93189.22;;;2.41;50.82
59289;BME280;45056;47.602;9.886;2023-02-28T13:52:24;93193.81;;;2.44;51.15
59289;BME280;45056;47.602;9.886;2023-02-28T13:55:19;93189.97;;;2.45;51.20
59289;BME280;45056;47.602;9.886;2023-02-28T13:58:09;93189.59;;;2.47;51.04
59289;BME280;45056;47.602;9.886;2023-02-28T14:01:16;93196.13;;;2.50;51.10
59289;BME280;45056;47.602;9.886;2023-02-28T14:07:23;93195.69;;;2.11;51.28
59289;BME280;45056;47.602;9.886;2023-02-28T14:10:01;93195.56;;;1.71;52.42
59289;BME280;45056;47.602;9.886;2023-02-28T14:12:56;93202.34;;;1.33;53.31
59289;BME280;45056;47.602;9.886;2023-02-28T14:15:48;93207.94;;;1.06;54.41
59289;BME280;45056;47.602;9.886;2023-02-28T14:18:27;93206.34;;;0.97;55.18
59289;BME280;45056;47.602;9.886;2023-02-28T14:21:09;93209.78;;;0.98;55.33
59289;BME280;45056;47.602;9.886;2023-02-28T14:24:20;93216.69;;;0.95;55.12
59289;BME280;45056;47.602;9.886;2023-02-28T14:27:16;93215.16;;;0.94;55.55
59289;BME280;45056;47.602;9.886;2023-02-28T14:33:27;93211.91;;;0.74;55.81
59289;BME280;45056;47.602;9.886;2023-02-28T14:36:10;93217.28;;;0.70;55.97
59289;BME280;45056;47.602;9.886;2023-02-28T14:38:47;93217.63;;;0.65;56.43
59289;BME280;45056;47.602;9.886;2023-02-28T14:41:23;93219.41;;;0.54;56.45
59289;BME280;45056;47.602;9.886;2023-02-28T14:43:58;93220.84;;;0.40;56.95
59289;BME280;45056;47.602;9.886;2023-02-28T14:46:36;93215.75;;;0.28;57.66